sensor_id;sensor_type;location;lat;lon;timestamp;temperature;humidity
19892;DHT22;10108;50.142;8.724;2023-02-26T00:00:40;4.10;99.90
19892;DHT22;10108;50.142;8.724;2023-02-26T00:03:06;4.20;99.90
19892;DHT22;10108;50.142;8.724;2023-02-26T00:05:32;4.20;99.90
19892;DHT22;10108;50.142;8.724;2023-02-26T00:07:58;4.30;99.90
19892;DHT22;10108;50.142;8.724;2023-02-26T00:10:25;4.30;99.90
19892;DHT22;10108;50.142;8.724;2023-02-26T00:12:51;4.30;99.90
19892;DHT22;10108;50.142;8.724;2023-02-26T00:15:17;4.20;99.70
19892;DHT22;10108;50.142;8.724;2023-02-26T00:17:56;4.20;99.90
19892;DHT22;10108;50.142;8.724;2023-02-26T00:20:25;4.30;99.90
19892;DHT22;10108;50.142;8.724;2023-02-26T00:22:51;4.30;99.70
19892;DHT22;10108;50.142;8.724;2023-02-26T00:25:17;4.20;99.40
19892;DHT22;10108;50.142;8.724;2023-02-26T00:27:43;4.20;99.40
19892;DHT22;10108;50.142;8.724;2023-02-26T00:30:10;4.30;99.60
19892;DHT22;10108;50.142;8.724;2023-02-26T00:32:37;4.20;99.30
19892;DHT22;10108;50.142;8.724;2023-02-26T00:35:06;4.30;99.50
19892;DHT22;10108;50.142;8.724;2023-02-26T00:37:47;4.30;99.30
19892;DHT22;10108;50.142;8.724;2023-02-26T00:42:53;4.30;99.50
19892;DHT22;10108;50.142;8.724;2023-02-26T00:45:19;4.30;99.40
19892;DHT22;10108;50.142;8.724;2023-02-26T00:50:28;4.30;99.70
19892;DHT22;10108;50.142;8.724;2023-02-26T00:55:45;4.40;99.80
19892;DHT22;10108;50.142;8.724;2023-02-26T00:58:11;4.50;99.60
19892;DHT22;10108;50.142;8.724;2023-02-26T01:00:37;4.50;99.60
19892;DHT22;10108;50.142;8.724;2023-02-26T01:03:03;4.50;99.70
19892;DHT22;10108;50.142;8.724;2023-02-26T01:05:30;4.50;99.60
19892;DHT22;10108;50.142;8.724;2023-02-26T01:08:18;4.50;99.40
19892;DHT22;10108;50.142;8.724;2023-02-26T01:10:45;4.50;99.40
19892;DHT22;10108;50.142;8.724;2023-02-26T01:13:11;4.50;99.60
19892;DHT22;10108;50.142;8.724;2023-02-26T01:15:38;4.50;99.40
19892;DHT22;10108;50.142;8.724;2023-02-26T01:18:13;4.40;99.70
19892;DHT22;10108;50.142;8.724;2023-02-26T01:20:47;4.40;99.70
19892;DHT22;10108;50.142;8.724;2023-02-26T01:23:17;4.40;99.60
19892;DHT22;10108;50.142;8.724;2023-02-26T01:25:49;4.50;99.80
19892;DHT22;10108;50.142;8.724;2023-02-26T01:28:17;4.50;99.80
19892;DHT22;10108;50.142;8.724;2023-02-26T01:30:44;4.50;99.60
19892;DHT22;10108;50.142;8.724;2023-02-26T01:33:22;4.50;99.60
19892;DHT22;10108;50.142;8.724;2023-02-26T01:36:02;4.50;99.30
19892;DHT22;10108;50.142;8.724;2023-02-26T01:38:57;4.50;99.10
19892;DHT22;10108;50.142;8.724;2023-02-26T01:44:29;4.40;99.50
19892;DHT22;10108;50.142;8.724;2023-02-26T01:47:24;4.40;99.80
19892;DHT22;10108;50.142;8.724;2023-02-26T01:49:51;4.40;99.80
19892;DHT22;10108;50.142;8.724;2023-02-26T01:55:17;4.30;99.90
19892;DHT22;10108;50.142;8.724;2023-02-26T01:57:47;4.30;99.80
19892;DHT22;10108;50.142;8.724;2023-02-26T02:00:15;4.20;99.90
19892;DHT22;10108;50.142;8.724;2023-02-26T02:02:41;4.20;99.90
19892;DHT22;10108;50.142;8.724;2023-02-26T02:05:15;4.10;99.90
19892;DHT22;10108;50.142;8.724;2023-02-26T02:07:46;4.10;99.90
19892;DHT22;10108;50.142;8.724;2023-02-26T02:10:12;4.10;99.90
19892;DHT22;10108;50.142;8.724;2023-02-26T02:13:02;4.10;99.90
19892;DHT22;10108;50.142;8.724;2023-02-26T02:15:44;4.10;99.90
19892;DHT22;10108;50.142;8.724;2023-02-26T02:18:28;4.10;99.90
19892;DHT22;10108;50.142;8.724;2023-02-26T02:21:08;4.10;99.90
19892;DHT22;10108;50.142;8.724;2023-02-26T02:23:44;4.00;99.90
19892;DHT22;10108;50.142;8.724;2023-02-26T02:28:58;4.00;99.90
19892;DHT22;10108;50.142;8.724;2023-02-26T02:31:34;4.00;99.90
19892;DHT22;10108;50.142;8.724;2023-02-26T02:34:10;4.00;99.90
19892;DHT22;10108;50.142;8.724;2023-02-26T02:36:46;4.00;99.90
19892;DHT22;10108;50.142;8.724;2023-02-26T02:39:56;4.00;99.90
19892;DHT22;10108;50.142;8.724;2023-02-26T02:44:51;3.90;99.90
19892;DHT22;10108;50.142;8.724;2023-02-26T02:47:19;3.80;99.90
19892;DHT22;10108;50.142;8.724;2023-02-26T02:50:02;3.80;99.90
19892;DHT22;10108;50.142;8.724;2023-02-26T02:52:44;3.80;99.90
19892;DHT22;10108;50.142;8.724;2023-02-26T02:55:21;3.80;99.90
19892;DHT22;10108;50.142;8.724;2023-02-26T02:58:03;3.80;99.90
19892;DHT22;10108;50.142;8.724;2023-02-26T03:00:34;3.70;99.90
19892;DHT22;10108;50.142;8.724;2023-02-26T03:03:10;3.70;99.90
19892;DHT22;10108;50.142;8.724;2023-02-26T03:05:38;3.70;99.90
19892;DHT22;10108;50.142;8.724;2023-02-26T03:08:09;3.70;99.90
19892;DHT22;10108;50.142;8.724;2023-02-26T03:10:36;3.70;99.90
19892;DHT22;10108;50.142;8.724;2023-02-26T03:13:03;3.70;99.90
19892;DHT22;10108;50.142;8.724;2023-02-26T03:21:06;3.60;99.90
19892;DHT22;10108;50.142;8.724;2023-02-26T03:23:48;3.50;99.90
19892;DHT22;10108;50.142;8.724;2023-02-26T03:26:23;3.50;99.90
19892;DHT22;10108;50.142;8.724;2023-02-26T03:29:01;3.50;99.90
19892;DHT22;10108;50.142;8.724;2023-02-26T03:31:39;3.40;99.90
19892;DHT22;10108;50.142;8.724;2023-02-26T03:34:19;3.40;99.90
19892;DHT22;10108;50.142;8.724;2023-02-26T03:36:53;3.40;99.90
19892;DHT22;10108;50.142;8.724;2023-02-26T03:39:41;3.50;99.90
19892;DHT22;10108;50.142;8.724;2023-02-26T03:42:23;3.50;99.90
19892;DHT22;10108;50.142;8.724;2023-02-26T03:45:00;3.50;99.90
19892;DHT22;10108;50.142;8.724;2023-02-26T03:47:27;3.50;99.90
19892;DHT22;10108;50.142;8.724;2023-02-26T03:52:38;3.50;99.90
19892;DHT22;10108;50.142;8.724;2023-02-26T03:55:26;3.50;99.90
19892;DHT22;10108;50.142;8.724;2023-02-26T03:57:54;3.50;99.90
19892;DHT22;10108;50.142;8.724;2023-02-26T04:00:32;3.50;99.90
19892;DHT22;10108;50.142;8.724;2023-02-26T04:03:03;3.50;99.90
19892;DHT22;10108;50.142;8.724;2023-02-26T04:05:36;3.40;99.90
19892;DHT22;10108;50.142;8.724;2023-02-26T04:08:04;3.50;99.90
19892;DHT22;10108;50.142;8.724;2023-02-26T04:10:51;3.50;99.90
19892;DHT22;10108;50.142;8.724;2023-02-26T04:13:19;3.50;99.90
19892;DHT22;10108;50.142;8.724;2023-02-26T04:15:45;3.50;99.90
19892;DHT22;10108;50.142;8.724;2023-02-26T04:18:11;3.50;99.90
19892;DHT22;10108;50.142;8.724;2023-02-26T04:20:38;3.50;99.90
19892;DHT22;10108;50.142;8.724;2023-02-26T04:23:04;3.50;99.90
19892;DHT22;10108;50.142;8.724;2023-02-26T04:25:30;3.50;99.90
19892;DHT22;10108;50.142;8.724;2023-02-26T04:27:57;3.50;99.90
19892;DHT22;10108;50.142;8.724;2023-02-26T04:30:23;3.50;99.90
19892;DHT22;10108;50.142;8.724;2023-02-26T04:32:49;3.50;99.90
19892;DHT22;10108;50.142;8.724;2023-02-26T04:35:16;3.50;99.90
19892;DHT22;10108;50.142;8.724;2023-02-26T04:37:42;3.50;99.90
19892;DHT22;10108;50.142;8.724;2023-02-26T04:40:08;3.40;99.90
19892;DHT22;10108;50.142;8.724;2023-02-26T04:42:34;3.40;99.90
19892;DHT22;10108;50.142;8.724;2023-02-26T04:45:01;3.40;99.90
19892;DHT22;10108;50.142;8.724;2023-02-26T04:47:28;3.40;99.90
19892;DHT22;10108;50.142;8.724;2023-02-26T04:49:54;3.40;99.90
19892;DHT22;10108;50.142;8.724;2023-02-26T04:52:20;3.30;99.90
19892;DHT22;10108;50.142;8.724;2023-02-26T04:54:47;3.30;99.90
19892;DHT22;10108;50.142;8.724;2023-02-26T04:57:15;3.30;99.90
19892;DHT22;10108;50.142;8.724;2023-02-26T04:59:41;3.30;99.90
19892;DHT22;10108;50.142;8.724;2023-02-26T05:02:07;3.30;99.90
19892;DHT22;10108;50.142;8.724;2023-02-26T05:04:38;3.30;99.90
19892;DHT22;10108;50.142;8.724;2023-02-26T05:07:04;3.30;99.90
19892;DHT22;10108;50.142;8.724;2023-02-26T05:09:30;3.30;99.90
19892;DHT22;10108;50.142;8.724;2023-02-26T05:11:57;3.20;99.90
19892;DHT22;10108;50.142;8.724;2023-02-26T05:14:23;3.20;99.90
19892;DHT22;10108;50.142;8.724;2023-02-26T05:16:49;3.20;99.90
19892;DHT22;10108;50.142;8.724;2023-02-26T05:19:15;3.20;99.90
19892;DHT22;10108;50.142;8.724;2023-02-26T05:21:44;3.30;99.90
19892;DHT22;10108;50.142;8.724;2023-02-26T05:24:10;3.30;99.90
19892;DHT22;10108;50.142;8.724;2023-02-26T05:26:37;3.30;99.90
19892;DHT22;10108;50.142;8.724;2023-02-26T05:29:03;3.20;99.90
19892;DHT22;10108;50.142;8.724;2023-02-26T05:31:30;3.20;99.90
19892;DHT22;10108;50.142;8.724;2023-02-26T05:33:56;3.20;99.90
19892;DHT22;10108;50.142;8.724;2023-02-26T05:36:22;3.10;99.90
19892;DHT22;10108;50.142;8.724;2023-02-26T05:38:48;3.10;99.90
19892;DHT22;10108;50.142;8.724;2023-02-26T05:41:14;3.00;99.90
19892;DHT22;10108;50.142;8.724;2023-02-26T05:43:40;3.10;99.90
19892;DHT22;10108;50.142;8.724;2023-02-26T05:46:06;3.10;99.90
19892;DHT22;10108;50.142;8.724;2023-02-26T05:48:33;3.20;99.90
19892;DHT22;10108;50.142;8.724;2023-02-26T05:50:59;3.20;99.90
19892;DHT22;10108;50.142;8.724;2023-02-26T05:53:25;3.20;99.90
19892;DHT22;10108;50.142;8.724;2023-02-26T05:55:52;3.20;99.90
19892;DHT22;10108;50.142;8.724;2023-02-26T05:58:19;3.20;99.90
19892;DHT22;10108;50.142;8.724;2023-02-26T06:00:45;3.30;99.90
19892;DHT22;10108;50.142;8.724;2023-02-26T06:03:11;3.30;99.90
19892;DHT22;10108;50.142;8.724;2023-02-26T06:08:04;3.20;99.90
19892;DHT22;10108;50.142;8.724;2023-02-26T06:12:57;3.30;99.90
19892;DHT22;10108;50.142;8.724;2023-02-26T06:15:23;3.20;99.90
19892;DHT22;10108;50.142;8.724;2023-02-26T06:17:49;3.20;99.90
19892;DHT22;10108;50.142;8.724;2023-02-26T06:20:15;3.20;99.90
19892;DHT22;10108;50.142;8.724;2023-02-26T06:22:41;3.10;99.90
19892;DHT22;10108;50.142;8.724;2023-02-26T06:25:08;3.20;99.90
19892;DHT22;10108;50.142;8.724;2023-02-26T06:27:34;3.20;99.90
19892;DHT22;10108;50.142;8.724;2023-02-26T06:30:00;3.10;99.90
19892;DHT22;10108;50.142;8.724;2023-02-26T06:32:27;3.10;99.90
19892;DHT22;10108;50.142;8.724;2023-02-26T06:34:53;3.10;99.90
19892;DHT22;10108;50.142;8.724;2023-02-26T06:39:45;3.10;99.90
19892;DHT22;10108;50.142;8.724;2023-02-26T06:42:11;3.00;99.90
19892;DHT22;10108;50.142;8.724;2023-02-26T06:44:37;3.00;99.90
19892;DHT22;10108;50.142;8.724;2023-02-26T06:47:03;3.00;99.90
19892;DHT22;10108;50.142;8.724;2023-02-26T06:49:29;3.00;99.90
19892;DHT22;10108;50.142;8.724;2023-02-26T06:51:56;3.00;99.90
19892;DHT22;10108;50.142;8.724;2023-02-26T06:54:22;3.10;99.90
19892;DHT22;10108;50.142;8.724;2023-02-26T06:56:48;3.10;99.90
19892;DHT22;10108;50.142;8.724;2023-02-26T06:59:14;3.10;99.90
19892;DHT22;10108;50.142;8.724;2023-02-26T07:01:40;3.10;99.90
19892;DHT22;10108;50.142;8.724;2023-02-26T07:04:06;3.10;99.90
19892;DHT22;10108;50.142;8.724;2023-02-26T07:06:32;3.10;99.90
19892;DHT22;10108;50.142;8.724;2023-02-26T07:08:58;3.10;99.90
19892;DHT22;10108;50.142;8.724;2023-02-26T07:11:24;3.10;99.90
19892;DHT22;10108;50.142;8.724;2023-02-26T07:13:51;3.10;99.90
19892;DHT22;10108;50.142;8.724;2023-02-26T07:16:17;3.10;99.90
19892;DHT22;10108;50.142;8.724;2023-02-26T07:18:43;3.20;99.90
19892;DHT22;10108;50.142;8.724;2023-02-26T07:21:09;3.20;99.90
19892;DHT22;10108;50.142;8.724;2023-02-26T07:23:35;3.20;99.90
19892;DHT22;10108;50.142;8.724;2023-02-26T07:26:01;3.20;99.90
19892;DHT22;10108;50.142;8.724;2023-02-26T07:28:28;3.20;99.90
19892;DHT22;10108;50.142;8.724;2023-02-26T07:30:54;3.30;99.90
19892;DHT22;10108;50.142;8.724;2023-02-26T07:33:21;3.30;99.90
19892;DHT22;10108;50.142;8.724;2023-02-26T07:35:47;3.40;99.90
19892;DHT22;10108;50.142;8.724;2023-02-26T07:38:14;3.50;99.90
19892;DHT22;10108;50.142;8.724;2023-02-26T07:40:40;3.50;99.90
19892;DHT22;10108;50.142;8.724;2023-02-26T07:43:06;3.60;99.90
19892;DHT22;10108;50.142;8.724;2023-02-26T07:45:32;3.60;99.90
19892;DHT22;10108;50.142;8.724;2023-02-26T07:47:58;3.60;99.90
19892;DHT22;10108;50.142;8.724;2023-02-26T07:50:25;3.60;99.90
19892;DHT22;10108;50.142;8.724;2023-02-26T07:52:51;3.60;99.90
19892;DHT22;10108;50.142;8.724;2023-02-26T07:55:18;3.60;99.90
19892;DHT22;10108;50.142;8.724;2023-02-26T07:57:45;3.60;99.90
19892;DHT22;10108;50.142;8.724;2023-02-26T08:00:12;3.60;99.90
19892;DHT22;10108;50.142;8.724;2023-02-26T08:02:38;3.60;99.90
19892;DHT22;10108;50.142;8.724;2023-02-26T08:05:04;3.60;99.90
19892;DHT22;10108;50.142;8.724;2023-02-26T08:07:31;3.70;99.90
19892;DHT22;10108;50.142;8.724;2023-02-26T08:09:57;3.60;99.90
19892;DHT22;10108;50.142;8.724;2023-02-26T08:12:23;3.70;99.90
19892;DHT22;10108;50.142;8.724;2023-02-26T08:14:49;3.60;99.90
19892;DHT22;10108;50.142;8.724;2023-02-26T08:17:15;3.60;99.90
19892;DHT22;10108;50.142;8.724;2023-02-26T08:19:41;3.60;99.90
19892;DHT22;10108;50.142;8.724;2023-02-26T08:22:07;3.60;99.90
19892;DHT22;10108;50.142;8.724;2023-02-26T08:24:33;3.60;99.90
19892;DHT22;10108;50.142;8.724;2023-02-26T08:26:59;3.70;99.90
19892;DHT22;10108;50.142;8.724;2023-02-26T08:29:26;3.60;99.90
19892;DHT22;10108;50.142;8.724;2023-02-26T08:31:52;3.60;99.90
19892;DHT22;10108;50.142;8.724;2023-02-26T08:34:18;3.70;99.90
19892;DHT22;10108;50.142;8.724;2023-02-26T08:36:44;3.70;99.90
19892;DHT22;10108;50.142;8.724;2023-02-26T08:39:10;3.60;99.90
19892;DHT22;10108;50.142;8.724;2023-02-26T08:41:36;3.60;99.90
19892;DHT22;10108;50.142;8.724;2023-02-26T08:44:03;3.70;99.90
19892;DHT22;10108;50.142;8.724;2023-02-26T08:46:29;3.70;99.90
19892;DHT22;10108;50.142;8.724;2023-02-26T08:48:55;3.70;99.90
19892;DHT22;10108;50.142;8.724;2023-02-26T08:51:22;3.70;99.90
19892;DHT22;10108;50.142;8.724;2023-02-26T08:53:48;3.80;99.90
19892;DHT22;10108;50.142;8.724;2023-02-26T08:56:15;3.80;99.90
19892;DHT22;10108;50.142;8.724;2023-02-26T08:58:42;3.80;99.90
19892;DHT22;10108;50.142;8.724;2023-02-26T09:01:09;3.80;99.90
19892;DHT22;10108;50.142;8.724;2023-02-26T09:03:35;3.80;99.90
19892;DHT22;10108;50.142;8.724;2023-02-26T09:06:01;3.80;99.90
19892;DHT22;10108;50.142;8.724;2023-02-26T09:08:31;3.80;99.90
19892;DHT22;10108;50.142;8.724;2023-02-26T09:11:01;3.80;99.90
19892;DHT22;10108;50.142;8.724;2023-02-26T09:13:28;3.80;99.90
19892;DHT22;10108;50.142;8.724;2023-02-26T09:15:55;3.90;99.90
19892;DHT22;10108;50.142;8.724;2023-02-26T09:18:21;3.80;99.90
19892;DHT22;10108;50.142;8.724;2023-02-26T09:20:47;3.90;99.90
19892;DHT22;10108;50.142;8.724;2023-02-26T09:23:13;3.90;99.90
19892;DHT22;10108;50.142;8.724;2023-02-26T09:25:39;4.00;98.80
19892;DHT22;10108;50.142;8.724;2023-02-26T09:28:05;4.10;98.50
19892;DHT22;10108;50.142;8.724;2023-02-26T09:30:32;4.30;98.50
19892;DHT22;10108;50.142;8.724;2023-02-26T09:32:58;4.30;98.00
19892;DHT22;10108;50.142;8.724;2023-02-26T09:35:24;4.30;98.50
19892;DHT22;10108;50.142;8.724;2023-02-26T09:37:50;4.40;98.60
19892;DHT22;10108;50.142;8.724;2023-02-26T09:40:44;4.40;98.50
19892;DHT22;10108;50.142;8.724;2023-02-26T09:46:09;4.50;99.20
19892;DHT22;10108;50.142;8.724;2023-02-26T09:48:37;4.60;98.70
19892;DHT22;10108;50.142;8.724;2023-02-26T09:51:04;4.60;98.90
19892;DHT22;10108;50.142;8.724;2023-02-26T09:53:38;4.60;98.40
19892;DHT22;10108;50.142;8.724;2023-02-26T09:56:17;4.60;99.20
19892;DHT22;10108;50.142;8.724;2023-02-26T09:58:45;4.60;99.20
19892;DHT22;10108;50.142;8.724;2023-02-26T10:01:13;4.70;99.30
19892;DHT22;10108;50.142;8.724;2023-02-26T10:07:02;4.80;97.90
19892;DHT22;10108;50.142;8.724;2023-02-26T10:12:15;5.00;97.90
19892;DHT22;10108;50.142;8.724;2023-02-26T10:14:51;4.90;97.30
19892;DHT22;10108;50.142;8.724;2023-02-26T10:17:34;4.90;97.70
19892;DHT22;10108;50.142;8.724;2023-02-26T10:20:20;5.00;97.70
19892;DHT22;10108;50.142;8.724;2023-02-26T10:25:43;5.10;98.30
19892;DHT22;10108;50.142;8.724;2023-02-26T10:31:04;5.30;98.90
19892;DHT22;10108;50.142;8.724;2023-02-26T10:33:54;5.50;98.40
19892;DHT22;10108;50.142;8.724;2023-02-26T10:36:36;5.50;99.20
19892;DHT22;10108;50.142;8.724;2023-02-26T10:39:31;5.60;98.50
19892;DHT22;10108;50.142;8.724;2023-02-26T10:42:04;5.60;98.90
19892;DHT22;10108;50.142;8.724;2023-02-26T10:44:48;5.70;98.70
19892;DHT22;10108;50.142;8.724;2023-02-26T10:47:31;5.70;97.50
19892;DHT22;10108;50.142;8.724;2023-02-26T10:50:02;5.70;97.90
19892;DHT22;10108;50.142;8.724;2023-02-26T10:52:31;5.60;98.40
19892;DHT22;10108;50.142;8.724;2023-02-26T11:00:28;5.70;97.20
19892;DHT22;10108;50.142;8.724;2023-02-26T11:02:55;5.70;97.30
19892;DHT22;10108;50.142;8.724;2023-02-26T11:05:24;5.70;97.00
19892;DHT22;10108;50.142;8.724;2023-02-26T11:07:54;5.70;97.10
19892;DHT22;10108;50.142;8.724;2023-02-26T11:10:24;5.70;96.90
19892;DHT22;10108;50.142;8.724;2023-02-26T11:12:51;5.70;96.80
19892;DHT22;10108;50.142;8.724;2023-02-26T11:15:20;5.70;97.60
19892;DHT22;10108;50.142;8.724;2023-02-26T11:17:51;5.70;97.20
19892;DHT22;10108;50.142;8.724;2023-02-26T11:20:37;5.70;97.80
19892;DHT22;10108;50.142;8.724;2023-02-26T11:23:09;5.70;97.20
19892;DHT22;10108;50.142;8.724;2023-02-26T11:25:36;5.70;97.10
19892;DHT22;10108;50.142;8.724;2023-02-26T11:28:21;5.70;97.30
19892;DHT22;10108;50.142;8.724;2023-02-26T11:30:48;5.80;97.40
19892;DHT22;10108;50.142;8.724;2023-02-26T11:33:21;5.80;97.60
19892;DHT22;10108;50.142;8.724;2023-02-26T11:35:48;5.90;95.70
19892;DHT22;10108;50.142;8.724;2023-02-26T11:38:19;6.00;96.50
19892;DHT22;10108;50.142;8.724;2023-02-26T11:40:50;6.00;96.30
19892;DHT22;10108;50.142;8.724;2023-02-26T11:43:20;6.00;96.80
19892;DHT22;10108;50.142;8.724;2023-02-26T11:45:51;6.10;97.10
19892;DHT22;10108;50.142;8.724;2023-02-26T11:48:28;6.10;96.80
19892;DHT22;10108;50.142;8.724;2023-02-26T11:50:59;6.20;96.90
19892;DHT22;10108;50.142;8.724;2023-02-26T11:53:34;6.20;96.30
19892;DHT22;10108;50.142;8.724;2023-02-26T11:56:40;6.20;95.50
19892;DHT22;10108;50.142;8.724;2023-02-26T11:59:16;6.20;95.00
19892;DHT22;10108;50.142;8.724;2023-02-26T12:01:43;6.20;96.20
19892;DHT22;10108;50.142;8.724;2023-02-26T12:04:14;6.20;96.50
19892;DHT22;10108;50.142;8.724;2023-02-26T12:06:43;6.20;96.50
19892;DHT22;10108;50.142;8.724;2023-02-26T12:09:11;6.30;96.50
19892;DHT22;10108;50.142;8.724;2023-02-26T12:14:23;6.40;96.50
19892;DHT22;10108;50.142;8.724;2023-02-26T12:20:19;6.40;96.30
19892;DHT22;10108;50.142;8.724;2023-02-26T12:22:49;6.40;96.40
19892;DHT22;10108;50.142;8.724;2023-02-26T12:34:03;6.40;97.30
19892;DHT22;10108;50.142;8.724;2023-02-26T12:42:48;6.30;96.30
19892;DHT22;10108;50.142;8.724;2023-02-26T12:45:38;6.30;96.60
19892;DHT22;10108;50.142;8.724;2023-02-26T12:48:19;6.30;96.30
19892;DHT22;10108;50.142;8.724;2023-02-26T12:54:12;6.20;95.40
19892;DHT22;10108;50.142;8.724;2023-02-26T12:57:16;6.20;95.80
19892;DHT22;10108;50.142;8.724;2023-02-26T12:59:57;6.20;95.70
19892;DHT22;10108;50.142;8.724;2023-02-26T13:16:18;6.20;95.70
19892;DHT22;10108;50.142;8.724;2023-02-26T13:21:48;6.30;95.50
19892;DHT22;10108;50.142;8.724;2023-02-26T13:24:38;6.30;94.70
19892;DHT22;10108;50.142;8.724;2023-02-26T13:27:06;6.30;95.20
19892;DHT22;10108;50.142;8.724;2023-02-26T13:29:37;6.40;94.90
19892;DHT22;10108;50.142;8.724;2023-02-26T13:32:18;6.30;94.70
19892;DHT22;10108;50.142;8.724;2023-02-26T13:37:27;6.30;95.30
19892;DHT22;10108;50.142;8.724;2023-02-26T13:39:56;6.30;95.10
19892;DHT22;10108;50.142;8.724;2023-02-26T13:42:53;6.30;94.60
19892;DHT22;10108;50.142;8.724;2023-02-26T13:45:44;6.30;95.00
19892;DHT22;10108;50.142;8.724;2023-02-26T13:48:42;6.30;95.50
19892;DHT22;10108;50.142;8.724;2023-02-26T13:54:02;6.30;94.70
19892;DHT22;10108;50.142;8.724;2023-02-26T14:07:12;6.20;93.80
19892;DHT22;10108;50.142;8.724;2023-02-26T14:14:44;6.10;93.50
19892;DHT22;10108;50.142;8.724;2023-02-26T14:19:42;6.10;93.70
19892;DHT22;10108;50.142;8.724;2023-02-26T14:27:41;6.40;94.20
19892;DHT22;10108;50.142;8.724;2023-02-26T14:35:21;6.50;93.10
19892;DHT22;10108;50.142;8.724;2023-02-26T14:43:49;6.10;93.80
19892;DHT22;10108;50.142;8.724;2023-02-26T14:46:18;6.10;92.90
19892;DHT22;10108;50.142;8.724;2023-02-26T14:48:45;6.00;93.50
19892;DHT22;10108;50.142;8.724;2023-02-26T14:51:52;6.10;93.30
19892;DHT22;10108;50.142;8.724;2023-02-26T14:57:16;6.00;92.40
19892;DHT22;10108;50.142;8.724;2023-02-26T15:02:29;5.90;92.60
19892;DHT22;10108;50.142;8.724;2023-02-26T15:16:44;6.20;92.50
19892;DHT22;10108;50.142;8.724;2023-02-26T15:22:02;6.10;92.90
19892;DHT22;10108;50.142;8.724;2023-02-26T15:24:31;6.10;92.20
19892;DHT22;10108;50.142;8.724;2023-02-26T15:27:00;6.00;92.20
19892;DHT22;10108;50.142;8.724;2023-02-26T15:29:30;6.00;92.00
19892;DHT22;10108;50.142;8.724;2023-02-26T15:32:05;6.00;93.00
19892;DHT22;10108;50.142;8.724;2023-02-26T15:34:31;5.90;93.10
19892;DHT22;10108;50.142;8.724;2023-02-26T15:36:58;6.00;93.20
19892;DHT22;10108;50.142;8.724;2023-02-26T15:39:25;6.00;92.10
19892;DHT22;10108;50.142;8.724;2023-02-26T15:41:53;6.00;91.70
19892;DHT22;10108;50.142;8.724;2023-02-26T15:44:24;5.90;92.50
19892;DHT22;10108;50.142;8.724;2023-02-26T15:46:55;5.80;92.80
19892;DHT22;10108;50.142;8.724;2023-02-26T15:49:29;5.80;93.10
19892;DHT22;10108;50.142;8.724;2023-02-26T15:51:59;5.70;92.50
19892;DHT22;10108;50.142;8.724;2023-02-26T15:54:33;5.70;91.90
19892;DHT22;10108;50.142;8.724;2023-02-26T15:57:01;5.60;91.70
19892;DHT22;10108;50.142;8.724;2023-02-26T15:59:30;5.60;91.60
19892;DHT22;10108;50.142;8.724;2023-02-26T16:01:57;5.60;92.10
19892;DHT22;10108;50.142;8.724;2023-02-26T16:04:23;5.60;92.40
19892;DHT22;10108;50.142;8.724;2023-02-26T16:06:55;5.60;92.30
19892;DHT22;10108;50.142;8.724;2023-02-26T16:09:29;5.60;91.80
19892;DHT22;10108;50.142;8.724;2023-02-26T16:12:09;5.60;92.60
19892;DHT22;10108;50.142;8.724;2023-02-26T16:14:40;5.60;91.70
19892;DHT22;10108;50.142;8.724;2023-02-26T16:17:13;5.70;92.20
19892;DHT22;10108;50.142;8.724;2023-02-26T16:19:44;5.60;91.50
19892;DHT22;10108;50.142;8.724;2023-02-26T16:22:36;5.60;91.80
19892;DHT22;10108;50.142;8.724;2023-02-26T16:25:19;5.50;91.70
19892;DHT22;10108;50.142;8.724;2023-02-26T16:28:01;5.50;92.00
19892;DHT22;10108;50.142;8.724;2023-02-26T16:30:48;5.40;92.10
19892;DHT22;10108;50.142;8.724;2023-02-26T16:33:17;5.30;92.40
19892;DHT22;10108;50.142;8.724;2023-02-26T16:35:48;5.30;92.50
19892;DHT22;10108;50.142;8.724;2023-02-26T16:38:26;5.30;92.80
19892;DHT22;10108;50.142;8.724;2023-02-26T16:41:04;5.30;93.20
19892;DHT22;10108;50.142;8.724;2023-02-26T16:46:18;5.30;93.20
19892;DHT22;10108;50.142;8.724;2023-02-26T16:49:01;5.20;92.90
19892;DHT22;10108;50.142;8.724;2023-02-26T16:51:30;5.20;92.60
19892;DHT22;10108;50.142;8.724;2023-02-26T16:54:04;5.20;93.40
19892;DHT22;10108;50.142;8.724;2023-02-26T16:56:37;5.20;93.10
19892;DHT22;10108;50.142;8.724;2023-02-26T16:59:16;5.10;93.20
19892;DHT22;10108;50.142;8.724;2023-02-26T17:01:54;5.10;93.50
19892;DHT22;10108;50.142;8.724;2023-02-26T17:04:23;5.10;93.40
19892;DHT22;10108;50.142;8.724;2023-02-26T17:06:51;5.20;92.70
19892;DHT22;10108;50.142;8.724;2023-02-26T17:09:43;5.20;92.80
19892;DHT22;10108;50.142;8.724;2023-02-26T17:12:15;5.20;93.60
19892;DHT22;10108;50.142;8.724;2023-02-26T17:14:44;5.20;93.30
19892;DHT22;10108;50.142;8.724;2023-02-26T17:17:11;5.20;92.50
19892;DHT22;10108;50.142;8.724;2023-02-26T17:19:37;5.20;92.70
19892;DHT22;10108;50.142;8.724;2023-02-26T17:22:04;5.20;92.60
19892;DHT22;10108;50.142;8.724;2023-02-26T17:24:33;5.10;93.10
19892;DHT22;10108;50.142;8.724;2023-02-26T17:27:03;5.10;93.60
19892;DHT22;10108;50.142;8.724;2023-02-26T17:29:38;5.10;93.80
19892;DHT22;10108;50.142;8.724;2023-02-26T17:32:09;5.10;93.40
19892;DHT22;10108;50.142;8.724;2023-02-26T17:34:39;5.10;93.90
19892;DHT22;10108;50.142;8.724;2023-02-26T17:37:07;5.20;93.90
19892;DHT22;10108;50.142;8.724;2023-02-26T17:39:34;5.20;93.90
19892;DHT22;10108;50.142;8.724;2023-02-26T17:42:00;5.30;94.40
19892;DHT22;10108;50.142;8.724;2023-02-26T17:44:26;5.30;93.20
19892;DHT22;10108;50.142;8.724;2023-02-26T17:46:54;5.20;93.90
19892;DHT22;10108;50.142;8.724;2023-02-26T17:49:20;5.20;94.10
19892;DHT22;10108;50.142;8.724;2023-02-26T17:51:46;5.20;93.80
19892;DHT22;10108;50.142;8.724;2023-02-26T17:54:12;5.20;93.80
19892;DHT22;10108;50.142;8.724;2023-02-26T17:56:38;5.20;93.80
19892;DHT22;10108;50.142;8.724;2023-02-26T17:59:07;5.20;93.60
19892;DHT22;10108;50.142;8.724;2023-02-26T18:01:34;5.10;92.90
19892;DHT22;10108;50.142;8.724;2023-02-26T18:04:00;5.10;93.40
19892;DHT22;10108;50.142;8.724;2023-02-26T18:06:34;5.10;93.70
19892;DHT22;10108;50.142;8.724;2023-02-26T18:09:02;5.00;93.70
19892;DHT22;10108;50.142;8.724;2023-02-26T18:11:31;5.10;93.90
19892;DHT22;10108;50.142;8.724;2023-02-26T18:13:58;5.20;94.10
19892;DHT22;10108;50.142;8.724;2023-02-26T18:16:30;5.10;94.10
19892;DHT22;10108;50.142;8.724;2023-02-26T18:18:59;5.20;93.80
19892;DHT22;10108;50.142;8.724;2023-02-26T18:21:25;5.10;94.40
19892;DHT22;10108;50.142;8.724;2023-02-26T18:26:43;5.10;93.60
19892;DHT22;10108;50.142;8.724;2023-02-26T18:29:10;5.10;93.40
19892;DHT22;10108;50.142;8.724;2023-02-26T18:31:36;5.10;93.80
19892;DHT22;10108;50.142;8.724;2023-02-26T18:34:02;5.10;93.30
19892;DHT22;10108;50.142;8.724;2023-02-26T18:36:31;5.20;93.70
19892;DHT22;10108;50.142;8.724;2023-02-26T18:39:00;5.20;93.40
19892;DHT22;10108;50.142;8.724;2023-02-26T18:41:28;5.20;93.10
19892;DHT22;10108;50.142;8.724;2023-02-26T18:43:55;5.20;93.60
19892;DHT22;10108;50.142;8.724;2023-02-26T18:46:22;5.20;93.50
19892;DHT22;10108;50.142;8.724;2023-02-26T18:48:48;5.20;93.80